createdAt,value
2019-01-29T00:00:04.071Z,3.10
2019-01-29T00:04:55.441Z,3.50
2019-01-29T00:09:45.615Z,4.10
2019-01-29T00:14:35.430Z,3.00
2019-01-29T00:19:25.245Z,3.50
2019-01-29T00:24:15.282Z,3.80
2019-01-29T00:29:05.747Z,4.00
2019-01-29T00:33:56.435Z,3.80
2019-01-29T00:38:47.561Z,4.70
2019-01-29T00:43:38.689Z,4.70
2019-01-29T00:48:30.159Z,4.20
2019-01-29T00:53:21.925Z,4.40
2019-01-29T00:58:13.728Z,4.30
2019-01-29T01:03:05.369Z,4.50
2019-01-29T01:07:56.607Z,4.20
2019-01-29T01:12:47.615Z,3.50
2019-01-29T01:17:38.430Z,5.70
2019-01-29T01:22:29.043Z,4.60
2019-01-29T01:27:19.894Z,4.40
2019-01-29T01:32:12.902Z,5.00
2019-01-29T01:37:02.982Z,6.40
2019-01-29T01:41:54.089Z,4.50
2019-01-29T01:46:44.523Z,4.50
2019-01-29T01:51:35.181Z,5.30
2019-01-29T01:56:25.814Z,6.00
2019-01-29T02:01:16.293Z,5.60
2019-01-29T02:06:06.814Z,4.40
2019-01-29T02:10:57.807Z,5.10
2019-01-29T02:15:48.277Z,4.80
2019-01-29T02:20:38.849Z,4.00
2019-01-29T02:25:29.728Z,4.40
2019-01-29T02:30:20.743Z,5.60
2019-01-29T02:35:11.355Z,3.90
2019-01-29T02:40:03.257Z,4.30
2019-01-29T02:44:54.907Z,4.90
2019-01-29T02:49:46.930Z,5.40
2019-01-29T02:54:37.782Z,4.10
2019-01-29T02:59:28.911Z,4.60
2019-01-29T03:04:20.036Z,5.30
2019-01-29T03:09:11.703Z,2.90
2019-01-29T03:14:02.559Z,3.90
2019-01-29T03:18:54.188Z,4.10
2019-01-29T03:23:45.394Z,5.40
2019-01-29T03:28:37.190Z,5.20
2019-01-29T03:33:27.797Z,5.00
2019-01-29T03:38:18.256Z,5.30
2019-01-29T03:43:08.616Z,4.90
2019-01-29T03:47:58.850Z,4.90
2019-01-29T03:52:49.792Z,6.70
2019-01-29T03:57:40.306Z,6.40
2019-01-29T04:02:30.965Z,7.30
2019-01-29T04:07:20.402Z,5.80
2019-01-29T04:12:10.254Z,7.70
2019-01-29T04:17:04.042Z,7.40
2019-01-29T04:21:55.263Z,7.20
2019-01-29T04:26:46.083Z,6.70
2019-01-29T04:31:36.290Z,7.30
2019-01-29T04:36:25.971Z,9.30
2019-01-29T04:41:17.490Z,8.70
2019-01-29T04:46:09.483Z,8.30
2019-01-29T04:51:01.096Z,9.80
2019-01-29T04:55:52.060Z,10.80
2019-01-29T05:00:42.420Z,11.90
2019-01-29T05:05:34.077Z,13.80
2019-01-29T05:10:23.931Z,11.50
2019-01-29T05:15:14.693Z,13.80
2019-01-29T05:20:05.969Z,16.90
2019-01-29T05:24:57.442Z,13.10
2019-01-29T05:29:50.262Z,14.70
2019-01-29T05:34:40.550Z,13.90
2019-01-29T05:39:31.895Z,15.40
2019-01-29T05:44:22.812Z,15.20
2019-01-29T05:49:13.728Z,15.00
2019-01-29T05:54:04.497Z,16.10
2019-01-29T05:58:55.263Z,16.00
2019-01-29T06:03:46.052Z,16.50
2019-01-29T06:08:38.571Z,18.70
2019-01-29T06:13:28.744Z,17.70
2019-01-29T06:18:19.437Z,17.50
2019-01-29T06:23:10.210Z,16.10
2019-01-29T06:28:01.165Z,17.30
2019-01-29T06:32:52.587Z,17.90
2019-01-29T06:37:43.320Z,15.50
2019-01-29T06:42:34.182Z,18.80
2019-01-29T06:47:26.706Z,18.70
2019-01-29T06:52:16.976Z,15.70
2019-01-29T06:57:09.875Z,19.00
2019-01-29T07:01:59.682Z,17.00
2019-01-29T07:06:50.886Z,16.60
2019-01-29T07:11:43.905Z,21.70
2019-01-29T07:16:36.435Z,18.20
2019-01-29T07:21:26.864Z,17.20
2019-01-29T07:26:17.798Z,16.50
2019-01-29T07:31:08.857Z,15.70
2019-01-29T07:35:59.160Z,16.60
2019-01-29T07:40:49.965Z,16.00
2019-01-29T07:45:40.518Z,18.90
2019-01-29T07:50:31.638Z,16.20
2019-01-29T07:55:22.828Z,17.90
2019-01-29T08:00:24.923Z,22.00
2019-01-29T08:05:13.813Z,17.60
2019-01-29T08:10:04.361Z,19.10
2019-01-29T08:14:55.254Z,17.30
2019-01-29T08:19:54.683Z,18.40
2019-01-29T08:24:51.903Z,15.90
2019-01-29T08:29:51.220Z,14.20
2019-01-29T08:34:52.278Z,15.70
2019-01-29T08:39:41.277Z,13.50
2019-01-29T08:44:32.003Z,10.80
2019-01-29T08:49:22.846Z,13.60
2019-01-29T08:54:13.631Z,11.50
2019-01-29T08:55:56.365Z,14.80
2019-01-29T09:00:46.168Z,14.30
2019-01-29T09:05:37.047Z,13.50
2019-01-29T09:10:28.116Z,12.30
2019-01-29T09:15:22.102Z,12.80
2019-01-29T09:20:12.427Z,12.50
2019-01-29T09:25:05.411Z,13.50
2019-01-29T09:29:55.893Z,12.60
2019-01-29T09:34:48.353Z,11.40
2019-01-29T09:39:39.346Z,12.00
2019-01-29T09:44:30.302Z,11.20
2019-01-29T09:49:23.356Z,11.70
2019-01-29T09:54:13.965Z,10.00
2019-01-29T09:59:04.779Z,10.40
2019-01-29T10:03:55.854Z,10.70
2019-01-29T10:08:46.943Z,10.40
2019-01-29T10:13:38.613Z,10.30
2019-01-29T10:18:32.149Z,9.50
2019-01-29T10:23:22.620Z,9.20
2019-01-29T10:28:15.777Z,11.20
2019-01-29T10:33:06.216Z,9.00
2019-01-29T10:37:57.438Z,9.30
2019-01-29T10:42:50.688Z,8.90
2019-01-29T10:47:42.099Z,8.30
2019-01-29T10:52:34.235Z,7.60
2019-01-29T10:57:25.099Z,7.90
2019-01-29T11:02:18.798Z,6.50
2019-01-29T11:07:09.470Z,6.60
2019-01-29T11:12:00.496Z,5.20
2019-01-29T11:16:51.596Z,5.90
2019-01-29T11:21:42.881Z,4.30
2019-01-29T11:26:34.931Z,4.50
2019-01-29T11:31:25.453Z,3.50
2019-01-29T11:36:16.707Z,4.40
2019-01-29T11:41:07.945Z,5.10
2019-01-29T11:45:59.400Z,3.70
2019-01-29T11:50:50.699Z,4.20
2019-01-29T11:55:43.835Z,5.40
2019-01-29T12:00:34.762Z,2.80
2019-01-29T12:05:26.212Z,5.00
2019-01-29T12:10:19.462Z,4.10
2019-01-29T12:15:10.620Z,3.10
2019-01-29T12:20:03.059Z,2.70
2019-01-29T12:24:56.588Z,3.90
2019-01-29T12:29:48.304Z,3.10
2019-01-29T12:34:39.637Z,3.00
2019-01-29T12:39:31.006Z,3.30
2019-01-29T12:44:22.934Z,3.30
2019-01-29T12:49:14.051Z,3.70
2019-01-29T12:54:06.741Z,3.00
2019-01-29T12:58:58.018Z,3.10
2019-01-29T13:03:51.327Z,2.20
2019-01-29T13:08:44.335Z,2.50
2019-01-29T13:13:35.562Z,2.80
2019-01-29T13:18:27.523Z,3.20
2019-01-29T13:23:21.248Z,2.40
2019-01-29T13:28:12.658Z,1.80
2019-01-29T13:33:04.731Z,2.50
2019-01-29T13:37:56.016Z,1.80
2019-01-29T13:42:47.713Z,2.20
2019-01-29T13:47:39.123Z,2.30
2019-01-29T13:52:33.115Z,2.20
2019-01-29T13:57:24.088Z,1.70
2019-01-29T14:02:16.235Z,2.30
2019-01-29T14:07:08.526Z,2.20
2019-01-29T14:12:00.589Z,1.20
2019-01-29T14:16:52.515Z,2.30
2019-01-29T14:21:44.143Z,1.80
2019-01-29T14:26:35.660Z,1.60
2019-01-29T14:31:27.650Z,3.10
2019-01-29T14:36:19.504Z,1.80
2019-01-29T14:41:11.117Z,1.50
2019-01-29T14:46:02.753Z,1.80
2019-01-29T14:50:56.911Z,2.10
2019-01-29T14:55:50.162Z,2.10
2019-01-29T15:00:41.534Z,2.60
2019-01-29T15:05:33.410Z,3.40
2019-01-29T15:10:25.566Z,2.70
2019-01-29T15:15:17.694Z,2.50
2019-01-29T15:20:09.654Z,3.20
2019-01-29T15:25:01.473Z,2.70
2019-01-29T15:29:54.950Z,3.30
2019-01-29T15:34:46.357Z,3.10
2019-01-29T15:39:40.894Z,3.00
2019-01-29T15:44:31.785Z,2.50
2019-01-29T15:49:25.460Z,2.50
2019-01-29T15:54:16.548Z,2.50
2019-01-29T15:59:08.344Z,3.00
2019-01-29T16:04:00.059Z,2.60
2019-01-29T16:08:53.882Z,3.90
2019-01-29T16:13:44.671Z,5.10
2019-01-29T16:18:36.676Z,3.50
2019-01-29T16:23:28.275Z,5.50
2019-01-29T16:28:20.147Z,4.10
2019-01-29T16:33:12.075Z,4.90
2019-01-29T16:38:05.798Z,6.60
2019-01-29T16:42:57.147Z,9.10
2019-01-29T16:47:48.965Z,8.20
2019-01-29T16:52:40.799Z,7.30
2019-01-29T16:57:34.777Z,6.60
2019-01-29T17:02:26.091Z,7.10
2019-01-29T17:07:18.313Z,6.50
2019-01-29T17:12:09.827Z,3.80
2019-01-29T17:17:01.765Z,3.80
2019-01-29T17:21:53.338Z,3.90
2019-01-29T17:26:45.248Z,3.40
2019-01-29T17:31:37.231Z,3.40
2019-01-29T17:36:29.016Z,4.70
2019-01-29T17:41:20.944Z,3.40
2019-01-29T17:46:12.832Z,3.80
2019-01-29T17:51:04.575Z,3.70
2019-01-29T17:55:58.194Z,3.00
2019-01-29T18:00:50.136Z,4.70
2019-01-29T18:05:41.861Z,3.90
2019-01-29T18:10:33.538Z,4.10
2019-01-29T18:15:27.709Z,3.90
2019-01-29T18:20:18.931Z,3.50
2019-01-29T18:25:10.746Z,3.70
2019-01-29T18:30:04.578Z,4.40
2019-01-29T18:34:58.029Z,5.00
2019-01-29T18:39:51.215Z,4.50
2019-01-29T18:44:42.468Z,4.70
2019-01-29T18:49:34.504Z,4.20
2019-01-29T18:54:26.350Z,3.20
2019-01-29T18:59:18.199Z,4.80
2019-01-29T19:04:12.134Z,4.10
2019-01-29T19:09:05.164Z,4.10
2019-01-29T19:13:56.415Z,4.80
2019-01-29T19:18:50.385Z,3.80
2019-01-29T19:23:43.678Z,3.50
2019-01-29T19:28:36.929Z,4.10
2019-01-29T19:33:30.146Z,4.30
2019-01-29T19:38:21.481Z,4.60
2019-01-29T19:43:14.203Z,4.50
2019-01-29T19:48:06.224Z,5.80
2019-01-29T19:53:00.050Z,6.10
2019-01-29T19:57:53.516Z,4.20
2019-01-29T20:02:47.040Z,4.60
2019-01-29T20:07:38.403Z,4.00
2019-01-29T20:12:30.182Z,3.80
2019-01-29T20:17:22.387Z,3.40
2019-01-29T20:22:14.429Z,4.60
2019-01-29T20:27:08.259Z,4.30
2019-01-29T20:31:59.546Z,5.20
2019-01-29T20:36:53.202Z,4.70
2019-01-29T20:41:46.651Z,4.90
2019-01-29T20:46:38.186Z,5.30
2019-01-29T20:51:29.970Z,4.40
2019-01-29T20:56:23.993Z,5.40
2019-01-29T21:01:15.301Z,3.70
2019-01-29T21:06:07.237Z,3.90
2019-01-29T21:10:59.196Z,4.10
2019-01-29T21:15:51.007Z,10.00
2019-01-29T21:20:42.933Z,4.40
2019-01-29T21:25:34.648Z,4.30
2019-01-29T21:30:26.727Z,3.60
2019-01-29T21:35:20.210Z,4.60
2019-01-29T21:40:21.829Z,5.10
2019-01-29T21:45:13.658Z,4.60
2019-01-29T21:50:11.416Z,4.50
2019-01-29T21:55:02.285Z,5.00
2019-01-29T21:59:54.031Z,3.60
2019-01-29T22:04:45.641Z,3.50
2019-01-29T22:09:37.521Z,3.20
2019-01-29T22:14:29.454Z,3.00
2019-01-29T22:19:21.192Z,4.10
2019-01-29T22:24:12.956Z,3.70
2019-01-29T22:29:04.525Z,4.10
2019-01-29T22:33:56.405Z,3.50
2019-01-29T22:38:50.382Z,2.90
2019-01-29T22:43:41.788Z,2.60
2019-01-29T22:48:35.557Z,2.80
2019-01-29T22:53:26.266Z,2.40
2019-01-29T22:58:20.237Z,2.80
2019-01-29T23:03:13.431Z,4.10
2019-01-29T23:08:06.945Z,3.50
2019-01-29T23:13:00.847Z,4.00
2019-01-29T23:44:39.646Z,3.90
2019-01-29T23:49:30.529Z,4.50
2019-01-29T23:54:21.959Z,3.20
